सभी
Wonderboom Airport (Pretoria) PRY मौसम
|
Pretoria (PRY / FAWB)
स्वच्छ आकाश
हल्की हवाएं |
|
23 °C |
PRY Terminal Area Forecast
| Date | Time (SAST) | Flight Rules | Wind Dir. | Speed | Type | Height AGL (ft) | Visibility | Remarks | ||||||
|---|---|---|---|---|---|---|---|---|---|---|---|---|---|---|
| 02-मई | 19:00 | VFR | 280° | 8 kt | Scattered | 3,500 | >= 6 miles | |||||||
| 02-मई | 18:00 | VFR | 280° | 8 kt | Scattered | 3,500 | >= 6 miles | |||||||
| 02-मई | 17:00 | VFR | 280° | 8 kt | Scattered | 3,500 | >= 6 miles | |||||||
Recent PRY METAR history
| Date | Time (SAST) | Flight Rules | Wind Dir. | Speed | Type | Height AGL (ft) | Visibility | Temp (°C) | Temp (°F) | Dew Point (°C) | Dew Point (°F) | Rel. Humid. | Pressure | Density Altitude | Remarks |
|---|---|---|---|---|---|---|---|---|---|---|---|---|---|---|---|
| 02-मई | 17:00 | n/a | 300° | 5 kt | Missing | 23° | 73° | 7° | 44° | 36% | 1021 mb | 5,775 ft | |||
| 02-मई | 16:00 | n/a | 300° | 7 kt | Missing | 24° | 75° | 7° | 44° | 34% | 1021 mb | 5,895 ft | |||
| 02-मई | 15:00 | n/a | 310° | 9 kt | Missing | 25° | 77° | 8° | 46° | 34% | 1021 mb | 6,015 ft | |||
| 02-मई | 14:00 | n/a | 300° | 6 kt | Missing | 24° | 75° | 7° | 44° | 34% | 1021 mb | 5,895 ft | Wind gusting to 17 KT | ||
| 02-मई | 13:00 | n/a | 300° | 9 kt | Missing | 24° | 75° | 9° | 48° | 38% | 1022 mb | 5,866 ft | |||
| 02-मई | 12:00 | n/a | 280° | 6 kt | Missing | 23° | 73° | 8° | 46° | 38% | 1022 mb | 5,746 ft | |||
| 02-मई | 11:00 | n/a | 310° | 1 kt | Missing | 22° | 71° | 8° | 46° | 41% | 1023 mb | 5,596 ft | |||
| 02-मई | 10:00 | n/a | 40° | 1 kt | Missing | 20° | 68° | 8° | 46° | 46% | 1023 mb | 5,356 ft | |||
| 02-मई | 09:00 | VFR | Variable | 2 kt | Clouds and visibility are OK. | 18° | 64° | 9° | 48° | 56% | 1023 mb | 5,116 ft | |||
| 02-मई | 08:00 | n/a | 110° | 1 kt | Missing | 16° | 60° | 10° | 50° | 68% | 1022 mb | 4,906 ft | |||
| 02-मई | 07:00 | n/a | Calm | Missing | 11° | 51° | 11° | 51° | 100% | 1022 mb | 4,306 ft | ||||
| 02-मई | 06:00 | n/a | 40° | 1 kt | Missing | 10° | 50° | 10° | 50° | 100% | 1021 mb | 4,215 ft | |||
| 02-मई | 05:00 | n/a | 220° | 2 kt | Missing | 11° | 51° | 11° | 51° | 100% | 1020 mb | 4,365 ft | |||
| 02-मई | 04:00 | n/a | Calm | Missing | 12° | 53° | 11° | 51° | 94% | 1020 mb | 4,485 ft | ||||
| 02-मई | 03:00 | n/a | 200° | 3 kt | Missing | 13° | 55° | 11° | 51° | 88% | 1020 mb | 4,605 ft | |||
| 02-मई | 02:00 | n/a | 170° | 3 kt | Missing | 12° | 53° | 12° | 53° | 100% | 1020 mb | 4,485 ft | |||
| 02-मई | 01:00 | n/a | 160° | 1 kt | Missing | 11° | 51° | 11° | 51° | 100% | 1020 mb | 4,365 ft | |||
| 02-मई | 00:00 | n/a | Calm | Missing | 12° | 53° | 12° | 53° | 100% | 1020 mb | 4,485 ft | ||||
| 01-मई | 23:00 | n/a | 230° | 4 kt | Missing | 14° | 57° | 13° | 55° | 94% | 1020 mb | 4,725 ft | |||
| 01-मई | 22:00 | n/a | Calm | Missing | 12° | 53° | 12° | 53° | 100% | 1020 mb | 4,485 ft | ||||
| 01-मई | 21:00 | n/a | Calm | Missing | 13° | 55° | 13° | 55° | 100% | 1020 mb | 4,605 ft | ||||
| 01-मई | 20:00 | n/a | Calm | Missing | 13° | 55° | 13° | 55° | 100% | 1020 mb | 4,605 ft | ||||
| 01-मई | 19:00 | n/a | 240° | 2 kt | Missing | 18° | 64° | 12° | 53° | 68% | 1019 mb | 5,234 ft | |||
| 01-मई | 18:00 | n/a | 300° | 2 kt | Missing | 19° | 66° | 12° | 53° | 64% | 1019 mb | 5,354 ft |
लॉगिन
| Your browser is unsupported. अपना ब्राऊजर अपग्रेड करें |
